createdAt,value
2017-10-09T00:00:25.467Z,13.80
2017-10-09T00:02:52.932Z,10.30
2017-10-09T00:05:20.549Z,10.50
2017-10-09T00:07:48.026Z,12.17
2017-10-09T00:10:15.490Z,11.97
2017-10-09T00:12:42.966Z,10.63
2017-10-09T00:15:10.435Z,13.03
2017-10-09T00:17:38.670Z,15.30
2017-10-09T00:20:06.141Z,13.97
2017-10-09T00:22:33.642Z,15.97
2017-10-09T00:25:01.104Z,14.20
2017-10-09T00:27:28.584Z,24.27
2017-10-09T00:29:56.056Z,14.67
2017-10-09T00:32:23.548Z,16.30
2017-10-09T00:34:51.013Z,8.17
2017-10-09T00:37:19.251Z,8.53
2017-10-09T00:39:46.781Z,12.53
2017-10-09T00:42:14.404Z,10.30
2017-10-09T00:44:42.631Z,8.83
2017-10-09T00:47:10.104Z,8.30
2017-10-09T00:49:37.626Z,9.70
2017-10-09T00:52:05.078Z,11.50
2017-10-09T00:54:32.568Z,13.80
2017-10-09T00:57:00.070Z,11.70
2017-10-09T00:59:28.301Z,8.27
2017-10-09T01:01:55.779Z,7.37
2017-10-09T01:04:23.255Z,10.60
2017-10-09T01:06:51.546Z,13.17
2017-10-09T01:09:19.009Z,9.37
2017-10-09T01:11:46.477Z,9.37
2017-10-09T01:14:13.957Z,12.83
2017-10-09T01:16:41.697Z,7.67
2017-10-09T01:19:09.164Z,15.60
2017-10-09T01:21:36.634Z,11.80
2017-10-09T01:24:04.208Z,10.40
2017-10-09T01:26:31.866Z,8.10
2017-10-09T01:28:59.328Z,11.93
2017-10-09T01:31:26.784Z,7.53
2017-10-09T01:33:54.317Z,12.13
2017-10-09T01:36:21.789Z,10.80
2017-10-09T01:38:49.278Z,7.07
2017-10-09T01:41:17.513Z,13.37
2017-10-09T01:43:44.993Z,12.67
2017-10-09T01:46:12.469Z,13.53
2017-10-09T01:48:40.697Z,10.80
2017-10-09T01:51:08.157Z,9.53
2017-10-09T01:53:35.625Z,9.03
2017-10-09T01:56:03.102Z,12.20
2017-10-09T01:58:30.652Z,12.13
2017-10-09T02:00:58.301Z,9.93
2017-10-09T02:03:25.768Z,12.13
2017-10-09T02:05:53.260Z,10.13
2017-10-09T02:08:21.493Z,8.03
2017-10-09T02:10:48.961Z,12.20
2017-10-09T02:13:16.649Z,11.50
2017-10-09T02:15:44.873Z,13.83
2017-10-09T02:18:12.368Z,12.60
2017-10-09T02:20:40.669Z,13.37
2017-10-09T02:23:08.140Z,12.90
2017-10-09T02:25:35.621Z,9.37
2017-10-09T02:28:03.088Z,11.53
2017-10-09T02:30:30.556Z,7.10
2017-10-09T02:32:58.015Z,8.17
2017-10-09T02:35:25.581Z,8.00
2017-10-09T02:37:53.037Z,15.63
2017-10-09T02:40:20.517Z,10.00
2017-10-09T02:42:48.747Z,11.63
2017-10-09T02:45:16.218Z,15.87
2017-10-09T02:47:43.697Z,8.80
2017-10-09T02:50:11.927Z,10.97
2017-10-09T02:52:39.401Z,13.33
2017-10-09T02:55:06.875Z,9.93
2017-10-09T02:57:34.436Z,7.80
2017-10-09T03:00:01.893Z,8.43
2017-10-09T03:02:30.118Z,10.30
2017-10-09T03:04:57.591Z,16.33
2017-10-09T03:07:25.045Z,6.73
2017-10-09T03:09:52.517Z,8.30
2017-10-09T03:12:19.980Z,9.47
2017-10-09T03:14:47.463Z,6.20
2017-10-09T03:17:15.689Z,6.57
2017-10-09T03:19:43.209Z,8.80
2017-10-09T03:22:16.332Z,10.17
2017-10-09T03:24:53.735Z,8.67
2017-10-09T03:27:23.878Z,7.90
2017-10-09T03:29:58.709Z,9.90
2017-10-09T03:32:26.255Z,7.30
2017-10-09T03:34:53.748Z,19.87
2017-10-09T03:37:21.220Z,9.07
2017-10-09T03:39:48.669Z,9.80
2017-10-09T03:42:16.176Z,8.83
2017-10-09T03:44:43.633Z,9.80
2017-10-09T03:47:11.357Z,8.53
2017-10-09T03:49:38.804Z,14.43
2017-10-09T03:52:06.286Z,12.13
2017-10-09T03:54:34.289Z,7.70
2017-10-09T03:57:01.766Z,11.87
2017-10-09T03:59:29.995Z,11.80
2017-10-09T04:01:57.449Z,14.47
2017-10-09T04:04:24.945Z,10.23
2017-10-09T04:06:53.178Z,16.97
2017-10-09T04:09:20.660Z,8.20
2017-10-09T04:11:48.125Z,11.73
2017-10-09T04:14:15.653Z,12.67
2017-10-09T04:16:43.193Z,10.43
2017-10-09T04:19:10.638Z,14.63
2017-10-09T04:21:38.151Z,9.33
2017-10-09T04:24:05.617Z,14.43
2017-10-09T04:26:33.882Z,14.03
2017-10-09T04:29:01.433Z,8.07
2017-10-09T04:31:28.914Z,10.47
2017-10-09T04:33:57.381Z,13.87
2017-10-09T04:36:25.621Z,15.53
2017-10-09T04:38:53.082Z,8.30
2017-10-09T04:41:20.540Z,9.27
2017-10-09T04:43:48.007Z,8.13
2017-10-09T04:46:15.479Z,12.90
2017-10-09T04:48:42.998Z,12.03
2017-10-09T04:51:10.479Z,8.00
2017-10-09T04:53:37.950Z,6.53
2017-10-09T04:56:05.431Z,10.13
2017-10-09T04:58:33.652Z,10.63
2017-10-09T05:01:01.130Z,10.20
2017-10-09T05:03:28.600Z,11.27
2017-10-09T05:05:56.098Z,15.10
2017-10-09T05:08:23.569Z,8.43
2017-10-09T05:10:51.032Z,12.10
2017-10-09T05:13:18.500Z,9.97
2017-10-09T05:15:45.976Z,14.73
2017-10-09T05:18:13.465Z,14.40
2017-10-09T05:20:41.840Z,15.57
2017-10-09T05:23:10.189Z,10.97
2017-10-09T05:25:37.686Z,12.73
2017-10-09T05:28:05.959Z,14.40
2017-10-09T05:30:34.198Z,17.63
2017-10-09T05:33:01.669Z,10.20
2017-10-09T05:35:29.136Z,20.10
2017-10-09T05:37:57.379Z,17.93
2017-10-09T05:40:24.862Z,15.40
2017-10-09T05:42:52.361Z,13.50
2017-10-09T05:45:19.820Z,11.57
2017-10-09T05:47:47.289Z,13.70
2017-10-09T05:50:14.795Z,11.80
2017-10-09T05:52:43.040Z,16.07
2017-10-09T05:55:10.517Z,13.80
2017-10-09T05:57:38.005Z,10.00
2017-10-09T06:00:05.484Z,9.30
2017-10-09T06:02:32.961Z,14.60
2017-10-09T06:05:00.424Z,9.27
2017-10-09T06:07:27.877Z,10.53
2017-10-09T06:09:55.353Z,14.60
2017-10-09T06:12:22.831Z,14.30
2017-10-09T06:14:51.063Z,13.93
2017-10-09T06:17:18.544Z,12.57
2017-10-09T06:19:46.013Z,9.90
2017-10-09T06:22:13.462Z,12.90
2017-10-09T06:24:41.705Z,9.33
2017-10-09T06:27:09.180Z,12.13
2017-10-09T06:29:36.664Z,10.63
2017-10-09T06:32:04.905Z,13.40
2017-10-09T06:34:32.369Z,13.30
2017-10-09T06:36:59.887Z,14.00
2017-10-09T06:39:27.349Z,8.97
2017-10-09T06:41:54.829Z,12.07
2017-10-09T06:44:22.311Z,14.37
2017-10-09T06:46:49.798Z,14.37
2017-10-09T06:49:17.257Z,12.67
2017-10-09T06:51:44.883Z,11.70
2017-10-09T06:54:12.353Z,17.50
2017-10-09T06:56:40.607Z,13.20
2017-10-09T06:59:08.290Z,10.20
2017-10-09T07:01:36.525Z,10.10
2017-10-09T07:04:03.986Z,8.27
2017-10-09T07:06:31.477Z,9.10
2017-10-09T07:08:59.750Z,12.57
2017-10-09T07:11:28.125Z,13.40
2017-10-09T07:13:55.606Z,14.17
2017-10-09T07:16:23.076Z,16.37
2017-10-09T07:18:50.554Z,13.00
2017-10-09T07:21:18.049Z,15.70
2017-10-09T07:23:46.165Z,17.27
2017-10-09T07:26:13.826Z,11.43
2017-10-09T07:28:41.324Z,14.07
2017-10-09T07:31:08.874Z,13.93
2017-10-09T07:33:36.372Z,12.77
2017-10-09T07:36:04.652Z,14.27
2017-10-09T07:38:32.132Z,11.53
2017-10-09T07:40:59.609Z,18.23
2017-10-09T07:43:27.089Z,10.33
2017-10-09T07:45:54.819Z,14.07
2017-10-09T07:48:22.301Z,23.17
2017-10-09T07:50:50.396Z,19.50
2017-10-09T07:53:17.857Z,14.80
2017-10-09T07:55:46.161Z,11.83
2017-10-09T07:58:13.639Z,7.67
2017-10-09T08:00:41.970Z,8.73
2017-10-09T08:03:10.220Z,13.93
2017-10-09T08:05:37.864Z,10.63
2017-10-09T08:08:05.337Z,11.53
2017-10-09T08:10:34.121Z,16.97
2017-10-09T08:13:01.588Z,12.47
2017-10-09T08:15:29.741Z,6.63
2017-10-09T08:17:57.201Z,3.60
2017-10-09T08:20:24.677Z,3.40
2017-10-09T08:22:52.136Z,3.57
2017-10-09T08:25:21.214Z,3.40
2017-10-09T08:27:48.743Z,8.53
2017-10-09T08:30:16.358Z,6.80
2017-10-09T08:32:43.865Z,10.60
2017-10-09T08:35:11.349Z,9.50
2017-10-09T08:37:38.825Z,13.23
2017-10-09T08:40:06.302Z,9.67
2017-10-09T08:42:34.553Z,11.90
2017-10-09T08:45:03.536Z,10.47
2017-10-09T08:47:31.009Z,11.83
2017-10-09T08:49:58.492Z,13.77
2017-10-09T08:52:26.024Z,18.03
2017-10-09T08:54:53.498Z,7.00
2017-10-09T08:57:21.747Z,5.80
2017-10-09T08:59:49.229Z,10.53
2017-10-09T09:02:17.496Z,11.67
2017-10-09T09:04:45.733Z,6.90
2017-10-09T09:07:13.273Z,11.97
2017-10-09T09:09:40.733Z,6.57
2017-10-09T09:12:08.209Z,13.07
2017-10-09T09:14:35.697Z,10.20
2017-10-09T09:17:03.932Z,12.10
2017-10-09T09:19:31.520Z,12.97
2017-10-09T09:21:59.003Z,12.30
2017-10-09T09:24:27.237Z,12.20
2017-10-09T09:26:54.690Z,14.93
2017-10-09T09:29:22.160Z,11.80
2017-10-09T09:31:49.621Z,14.43
2017-10-09T09:34:17.097Z,14.60
2017-10-09T09:36:45.349Z,13.43
2017-10-09T09:39:13.601Z,13.93
2017-10-09T09:41:41.083Z,14.20
2017-10-09T09:44:08.557Z,17.80
2017-10-09T09:46:36.812Z,19.27
2017-10-09T09:49:04.389Z,19.47
2017-10-09T09:51:32.619Z,15.63
2017-10-09T09:54:00.092Z,15.20
2017-10-09T09:56:27.568Z,20.87
2017-10-09T09:58:55.798Z,16.90
2017-10-09T10:01:23.291Z,18.93
2017-10-09T10:03:50.760Z,22.43
2017-10-09T10:06:19.013Z,20.10
2017-10-09T10:08:46.493Z,20.30
2017-10-09T10:11:13.953Z,20.00
2017-10-09T10:13:42.339Z,20.90
2017-10-09T10:16:10.602Z,24.50
2017-10-09T10:18:38.085Z,24.33
2017-10-09T10:21:05.567Z,23.57
2017-10-09T10:23:33.025Z,29.77
2017-10-09T10:26:00.679Z,24.77
2017-10-09T10:28:28.144Z,30.83
2017-10-09T10:30:55.640Z,29.70
2017-10-09T10:33:23.918Z,32.20
2017-10-09T10:35:51.381Z,31.93
2017-10-09T10:38:19.608Z,27.93
2017-10-09T10:40:47.090Z,30.00
2017-10-09T10:43:14.549Z,30.90
2017-10-09T10:45:42.148Z,29.40
2017-10-09T10:48:11.198Z,33.30
2017-10-09T10:50:38.673Z,33.10
2017-10-09T10:53:06.125Z,33.70
2017-10-09T10:55:33.612Z,38.10
2017-10-09T10:58:01.851Z,28.47
2017-10-09T11:00:30.100Z,30.70
2017-10-09T11:02:57.656Z,32.53
2017-10-09T11:05:25.239Z,34.17
2017-10-09T11:07:52.705Z,37.67
2017-10-09T11:10:20.197Z,40.00
2017-10-09T11:12:48.553Z,34.57
2017-10-09T11:15:16.021Z,35.87
2017-10-09T11:17:44.593Z,36.97
2017-10-09T11:20:12.040Z,40.27
2017-10-09T11:22:39.512Z,38.67
2017-10-09T11:25:07.745Z,40.03
2017-10-09T11:27:35.218Z,39.30
2017-10-09T11:30:03.590Z,37.27
2017-10-09T11:32:31.056Z,43.90
2017-10-09T11:34:58.581Z,37.03
2017-10-09T11:37:26.048Z,31.80
2017-10-09T11:39:53.516Z,32.27
2017-10-09T11:42:20.972Z,34.60
2017-10-09T11:44:48.457Z,30.00
2017-10-09T11:47:16.737Z,33.37
2017-10-09T11:49:44.964Z,28.03
2017-10-09T11:52:12.446Z,32.50
2017-10-09T11:54:39.922Z,30.03
2017-10-09T11:57:08.173Z,33.43
2017-10-09T11:59:35.817Z,32.73
2017-10-09T12:02:03.288Z,32.10
2017-10-09T12:04:30.764Z,33.37
2017-10-09T12:06:58.996Z,28.53
2017-10-09T12:09:26.486Z,34.07
2017-10-09T12:11:53.963Z,29.70
2017-10-09T12:14:21.416Z,33.33
2017-10-09T12:16:49.029Z,31.70
2017-10-09T12:19:16.488Z,30.63
2017-10-09T12:21:43.952Z,27.60
2017-10-09T12:24:11.454Z,27.90
2017-10-09T12:26:38.921Z,24.70
2017-10-09T12:29:08.980Z,28.43
2017-10-09T12:31:36.527Z,29.63
2017-10-09T12:34:04.002Z,24.40
2017-10-09T12:36:32.168Z,31.50
2017-10-09T12:39:12.089Z,26.20
2017-10-09T12:41:39.569Z,22.80
2017-10-09T12:44:07.058Z,26.80
2017-10-09T12:46:34.586Z,26.40
2017-10-09T12:49:02.046Z,24.00
2017-10-09T12:51:29.551Z,33.13
2017-10-09T12:53:57.011Z,24.17
2017-10-09T12:56:25.912Z,26.30
2017-10-09T12:58:54.165Z,27.17
2017-10-09T13:01:21.638Z,24.17
2017-10-09T13:03:49.889Z,23.70
2017-10-09T13:06:17.371Z,26.83
2017-10-09T13:08:45.621Z,30.13
2017-10-09T13:11:13.094Z,24.30
2017-10-09T13:13:40.573Z,29.93
2017-10-09T13:16:08.057Z,29.63
2017-10-09T13:18:35.543Z,32.00
2017-10-09T13:21:03.035Z,28.20
2017-10-09T13:23:31.289Z,27.30
2017-10-09T13:25:58.796Z,28.87
2017-10-09T13:28:26.283Z,30.17
2017-10-09T13:30:53.756Z,32.20
2017-10-09T13:33:22.856Z,28.73
2017-10-09T13:35:50.336Z,30.77
2017-10-09T13:38:18.588Z,30.13
2017-10-09T13:40:46.082Z,29.97
2017-10-09T13:43:14.312Z,29.33
2017-10-09T13:45:41.788Z,25.20
2017-10-09T13:48:10.307Z,25.33
2017-10-09T13:50:37.775Z,26.90
2017-10-09T13:53:05.832Z,46.40
2017-10-09T13:55:34.065Z,34.93
2017-10-09T13:58:01.530Z,27.67
2017-10-09T14:00:30.366Z,32.07
2017-10-09T14:02:57.862Z,30.07
2017-10-09T14:05:25.408Z,30.47
2017-10-09T14:07:52.982Z,23.80
2017-10-09T14:10:20.475Z,30.13
2017-10-09T14:12:48.716Z,28.83
2017-10-09T14:15:16.195Z,27.17
2017-10-09T14:17:44.461Z,34.40
2017-10-09T14:20:12.690Z,25.20
2017-10-09T14:22:40.180Z,30.70
2017-10-09T14:25:07.657Z,30.63
2017-10-09T14:27:35.916Z,33.73
2017-10-09T14:30:03.573Z,33.20
2017-10-09T14:39:54.734Z,28.57
2017-10-09T14:42:22.209Z,27.10
2017-10-09T14:44:50.471Z,22.80
2017-10-09T14:47:18.736Z,27.80
2017-10-09T14:49:46.213Z,25.17
2017-10-09T14:52:14.465Z,27.33
2017-10-09T14:54:41.925Z,29.10
2017-10-09T14:57:09.427Z,26.10
2017-10-09T14:59:37.002Z,25.07
2017-10-09T15:02:05.077Z,23.67
2017-10-09T15:04:32.550Z,28.70
2017-10-09T15:07:00.014Z,36.67
2017-10-09T15:09:27.490Z,21.20
2017-10-09T15:11:55.758Z,25.70
2017-10-09T15:14:23.247Z,23.50
2017-10-09T15:16:50.711Z,29.83
2017-10-09T15:19:18.189Z,38.00
2017-10-09T15:21:45.654Z,29.63
2017-10-09T15:24:13.130Z,25.93
2017-10-09T15:26:40.625Z,26.83
2017-10-09T15:29:08.877Z,25.47
2017-10-09T15:31:36.347Z,29.70
2017-10-09T15:34:04.591Z,31.23
2017-10-09T15:36:32.085Z,23.70
2017-10-09T15:39:00.314Z,26.23
2017-10-09T15:41:27.990Z,24.00
2017-10-09T15:43:55.623Z,21.20
2017-10-09T15:46:23.222Z,28.43
2017-10-09T15:48:50.708Z,27.83
2017-10-09T15:51:18.189Z,31.97
2017-10-09T15:53:45.661Z,25.30
2017-10-09T15:56:13.141Z,24.73
2017-10-09T15:58:40.617Z,19.97
2017-10-09T16:01:08.885Z,19.80
2017-10-09T16:03:36.366Z,29.53
2017-10-09T16:06:03.872Z,24.73
2017-10-09T16:08:31.346Z,23.90
2017-10-09T16:10:58.863Z,25.97
2017-10-09T16:13:26.328Z,25.60
2017-10-09T16:15:53.865Z,26.53
2017-10-09T16:18:21.337Z,31.00
2017-10-09T16:20:48.809Z,53.57
2017-10-09T16:23:16.271Z,26.70
2017-10-09T16:25:43.745Z,27.33
2017-10-09T16:28:11.212Z,24.60
2017-10-09T16:30:38.940Z,24.47
2017-10-09T16:33:06.413Z,25.70
2017-10-09T16:35:33.883Z,24.90
2017-10-09T16:38:01.363Z,26.37
2017-10-09T16:40:29.617Z,26.97
2017-10-09T16:42:57.101Z,28.93
2017-10-09T16:45:25.942Z,24.07
2017-10-09T16:47:53.413Z,27.90
2017-10-09T16:50:20.889Z,27.40
2017-10-09T16:52:49.861Z,26.87
2017-10-09T16:55:17.371Z,28.20
2017-10-09T16:57:45.455Z,24.80
2017-10-09T17:00:12.934Z,26.17
2017-10-09T17:02:40.397Z,27.67
2017-10-09T17:05:07.874Z,30.60
2017-10-09T17:07:35.366Z,31.73
2017-10-09T17:10:03.542Z,25.87
2017-10-09T17:12:31.026Z,24.43
2017-10-09T17:14:58.510Z,30.07
2017-10-09T17:17:25.988Z,38.10
2017-10-09T17:19:54.218Z,23.40
2017-10-09T17:22:21.836Z,27.27
2017-10-09T17:24:50.072Z,30.43
2017-10-09T17:27:17.542Z,32.53
2017-10-09T17:29:45.021Z,25.50
2017-10-09T17:32:13.266Z,29.90
2017-10-09T17:34:40.742Z,30.50
2017-10-09T17:37:08.977Z,26.47
2017-10-09T17:39:36.529Z,26.83
2017-10-09T17:42:04.010Z,26.77
2017-10-09T17:44:33.021Z,25.00
2017-10-09T17:47:01.268Z,30.40
2017-10-09T17:49:28.734Z,27.90
2017-10-09T17:51:56.216Z,29.73
2017-10-09T17:54:24.454Z,22.23
2017-10-09T17:56:51.941Z,29.03
2017-10-09T17:59:19.496Z,18.73
2017-10-09T18:01:46.999Z,29.23
2017-10-09T18:04:14.475Z,24.83
2017-10-09T18:06:41.999Z,25.00
2017-10-09T18:09:09.470Z,22.93
2017-10-09T18:11:36.948Z,32.63
2017-10-09T18:14:04.459Z,23.50
2017-10-09T18:16:32.682Z,24.70
2017-10-09T18:19:00.168Z,18.77
2017-10-09T18:21:27.629Z,22.53
2017-10-09T18:23:55.184Z,27.77
2017-10-09T18:26:23.524Z,27.83
2017-10-09T18:28:50.985Z,28.93
2017-10-09T18:31:18.526Z,25.20
2017-10-09T18:33:45.984Z,21.50
2017-10-09T18:36:13.481Z,21.83
2017-10-09T18:38:40.942Z,22.17
2017-10-09T18:41:08.545Z,19.77
2017-10-09T18:43:36.010Z,19.30
2017-10-09T18:46:03.523Z,19.70
2017-10-09T18:48:31.050Z,24.53
2017-10-09T18:50:59.410Z,18.47
2017-10-09T18:53:26.916Z,18.50
2017-10-09T18:55:55.380Z,19.20
2017-10-09T18:58:22.857Z,18.33
2017-10-09T19:00:51.160Z,24.10
2017-10-09T19:03:18.670Z,21.93
2017-10-09T19:05:46.133Z,22.40
2017-10-09T19:08:13.610Z,21.03
2017-10-09T19:10:41.861Z,18.60
2017-10-09T19:13:09.329Z,24.83
2017-10-09T19:15:36.841Z,20.20
2017-10-09T19:18:04.324Z,20.83
2017-10-09T19:20:31.811Z,22.43
2017-10-09T19:22:59.318Z,23.00
2017-10-09T19:25:26.785Z,19.23
2017-10-09T19:27:54.474Z,17.77
2017-10-09T19:30:21.941Z,25.20
2017-10-09T19:32:49.447Z,20.70
2017-10-09T19:35:16.917Z,24.97
2017-10-09T19:37:44.421Z,18.37
2017-10-09T19:40:11.880Z,19.10
2017-10-09T19:42:40.157Z,17.07
2017-10-09T19:45:09.000Z,20.93
2017-10-09T19:47:36.599Z,21.40
2017-10-09T19:50:04.084Z,23.17
2017-10-09T19:52:31.565Z,25.33
2017-10-09T19:54:59.092Z,28.83
2017-10-09T19:57:27.364Z,20.00
2017-10-09T19:59:55.917Z,18.53
2017-10-09T20:02:23.400Z,20.53
2017-10-09T20:04:51.757Z,27.77
2017-10-09T20:07:20.699Z,22.10
2017-10-09T20:09:48.171Z,18.13
2017-10-09T20:12:15.652Z,18.10
2017-10-09T20:14:43.114Z,18.20
2017-10-09T20:17:12.098Z,25.37
2017-10-09T20:19:40.390Z,22.27
2017-10-09T20:22:10.741Z,27.27
2017-10-09T20:24:38.982Z,20.53
2017-10-09T20:27:06.541Z,22.13
2017-10-09T20:29:34.031Z,20.53
2017-10-09T20:32:02.473Z,19.60
2017-10-09T20:34:30.713Z,20.07
2017-10-09T20:36:59.148Z,19.93
2017-10-09T20:39:27.390Z,24.97
2017-10-09T20:41:54.857Z,18.07
2017-10-09T20:44:23.101Z,24.10
2017-10-09T20:46:50.584Z,20.93
2017-10-09T20:49:18.056Z,22.90
2017-10-09T20:51:45.555Z,23.27
2017-10-09T20:54:13.045Z,22.67
2017-10-09T20:56:40.534Z,24.67
2017-10-09T20:59:08.889Z,23.13
2017-10-09T21:01:36.354Z,26.73
2017-10-09T21:04:03.833Z,21.27
2017-10-09T21:06:32.077Z,20.73
2017-10-09T21:08:59.553Z,20.00
2017-10-09T21:11:27.793Z,27.73
2017-10-09T21:13:55.337Z,20.53
2017-10-09T21:16:23.009Z,19.00
2017-10-09T21:18:50.469Z,18.70
2017-10-09T21:21:17.949Z,17.87
2017-10-09T21:23:45.424Z,24.33
2017-10-09T21:26:13.661Z,21.10
2017-10-09T21:28:41.143Z,22.20
2017-10-09T21:31:08.606Z,24.37
2017-10-09T21:33:36.846Z,24.30
2017-10-09T21:36:04.505Z,23.00
2017-10-09T21:38:31.976Z,19.10
2017-10-09T21:40:59.453Z,31.83
2017-10-09T21:43:26.973Z,21.80
2017-10-09T21:45:54.448Z,25.37
2017-10-09T21:48:21.983Z,22.67
2017-10-09T21:50:49.441Z,24.73
2017-10-09T21:53:16.915Z,22.60
2017-10-09T21:55:44.389Z,22.50
2017-10-09T21:58:11.873Z,22.40
2017-10-09T22:00:40.122Z,26.07
2017-10-09T22:03:07.592Z,24.57
2017-10-09T22:05:35.060Z,19.40
2017-10-09T22:08:03.298Z,25.73
2017-10-09T22:10:30.977Z,25.93
2017-10-09T22:12:58.445Z,22.80
2017-10-09T22:15:26.682Z,24.83
2017-10-09T22:17:54.266Z,27.93
2017-10-09T22:20:21.772Z,25.50
2017-10-09T22:22:49.249Z,19.90
2017-10-09T22:25:16.848Z,25.10
2017-10-09T22:27:45.122Z,17.83
2017-10-09T22:30:12.601Z,19.30
2017-10-09T22:32:40.847Z,21.40
2017-10-09T22:35:08.313Z,18.00
2017-10-09T22:37:36.560Z,18.03
2017-10-09T22:40:04.034Z,26.17
2017-10-09T22:42:31.656Z,17.53
2017-10-09T22:44:59.364Z,17.07
2017-10-09T22:47:26.866Z,15.17
2017-10-09T22:49:54.344Z,15.53
2017-10-09T22:52:21.832Z,26.17
2017-10-09T22:54:49.299Z,20.90
2017-10-09T22:57:16.947Z,17.47
2017-10-09T22:59:44.409Z,19.30
2017-10-09T23:02:11.887Z,16.10
2017-10-09T23:04:40.139Z,17.07
2017-10-09T23:07:07.599Z,17.50
2017-10-09T23:09:35.073Z,14.33
2017-10-09T23:12:03.317Z,19.80
2017-10-09T23:14:30.809Z,17.07
2017-10-09T23:16:59.118Z,19.47
2017-10-09T23:19:26.606Z,14.80
2017-10-09T23:21:54.057Z,14.60
2017-10-09T23:24:21.533Z,16.27
2017-10-09T23:26:49.005Z,13.87
2017-10-09T23:29:16.470Z,18.33
2017-10-09T23:31:44.720Z,12.20
2017-10-09T23:34:12.181Z,12.77
2017-10-09T23:36:39.653Z,14.57
2017-10-09T23:39:07.884Z,11.90
2017-10-09T23:41:35.370Z,11.13
2017-10-09T23:44:02.844Z,30.27
2017-10-09T23:46:31.076Z,12.70
2017-10-09T23:48:58.557Z,14.80
2017-10-09T23:51:26.857Z,12.90
2017-10-09T23:53:55.097Z,11.33
2017-10-09T23:56:22.790Z,13.83
2017-10-09T23:58:51.002Z,14.00
